createdAt,value
2018-11-07T15:27:12.148Z,26.6
2018-11-07T15:29:50.871Z,26.8
2018-11-07T15:39:54.399Z,26.8
2018-11-07T15:49:57.891Z,26.8
2018-11-07T16:00:01.456Z,26.8
2018-11-07T16:10:05.783Z,26.7
2018-11-07T16:20:09.781Z,26.7
2018-11-07T16:30:13.291Z,26.7
2018-11-07T16:40:16.783Z,26.5
2018-11-07T16:50:20.317Z,26.5
2018-11-07T17:00:23.846Z,26.5
2018-11-07T17:10:27.372Z,26.5
2018-11-07T17:20:30.883Z,26.4
2018-11-07T17:30:34.639Z,26.4
2018-11-07T17:40:38.158Z,26.2
2018-11-07T17:50:41.645Z,25.9
2018-11-07T18:00:45.224Z,25.9
2018-11-07T18:10:48.701Z,25.9
2018-11-07T18:20:52.218Z,25.7
2018-11-07T18:30:55.739Z,25.6
2018-11-07T18:40:59.322Z,25.6
2018-11-07T18:51:02.900Z,25.6
2018-11-07T19:01:06.539Z,25.5
2018-11-07T19:11:10.091Z,25.5
2018-11-07T19:21:13.590Z,25.4
2018-11-07T19:31:17.116Z,25.4
2018-11-07T19:41:20.663Z,25.3
2018-11-07T19:51:24.186Z,25.3
2018-11-07T20:01:27.723Z,25.2
2018-11-07T20:11:31.254Z,25.2
2018-11-07T20:21:34.815Z,25.2
2018-11-07T20:31:38.338Z,25.2
2018-11-07T20:41:41.953Z,25.2
2018-11-07T20:51:45.869Z,25.1
2018-11-07T21:01:49.400Z,25.2
2018-11-07T21:11:53.286Z,25.1
2018-11-07T21:21:56.802Z,25.1
2018-11-07T21:32:00.338Z,25.1
2018-11-07T21:42:03.887Z,25.1
2018-11-07T21:52:07.399Z,25
2018-11-07T22:02:10.904Z,25
2018-11-07T22:12:15.259Z,24.9
2018-11-07T22:22:18.610Z,24.9
2018-11-07T22:32:21.994Z,24.8
2018-11-07T22:42:25.536Z,24.8
2018-11-07T22:52:29.052Z,24.7
2018-11-07T23:02:32.577Z,24.6
2018-11-07T23:12:36.144Z,24.5
2018-11-07T23:22:39.704Z,24.4
2018-11-07T23:32:43.214Z,24.3
2018-11-07T23:42:46.745Z,24.3
2018-11-07T23:52:50.235Z,24.2
